sensor_id;sensor_type;location;lat;lon;timestamp;P1;durP1;ratioP1;P2;durP2;ratioP2
16957;SDS011;8595;52.542;11.974;2024-02-21T00:01:50;22.88;;;8.40;;
16957;SDS011;8595;52.542;11.974;2024-02-21T00:04:17;23.77;;;7.93;;
16957;SDS011;8595;52.542;11.974;2024-02-21T00:06:44;21.73;;;8.27;;
16957;SDS011;8595;52.542;11.974;2024-02-21T00:09:10;21.48;;;7.78;;
16957;SDS011;8595;52.542;11.974;2024-02-21T00:11:38;15.15;;;7.03;;
16957;SDS011;8595;52.542;11.974;2024-02-21T00:14:05;27.20;;;8.53;;
16957;SDS011;8595;52.542;11.974;2024-02-21T00:16:31;25.33;;;7.77;;
16957;SDS011;8595;52.542;11.974;2024-02-21T00:18:58;23.92;;;6.90;;
16957;SDS011;8595;52.542;11.974;2024-02-21T00:21:24;28.38;;;8.02;;
16957;SDS011;8595;52.542;11.974;2024-02-21T00:23:51;21.80;;;7.43;;
16957;SDS011;8595;52.542;11.974;2024-02-21T00:26:17;19.90;;;7.40;;
16957;SDS011;8595;52.542;11.974;2024-02-21T00:28:45;21.83;;;7.47;;
16957;SDS011;8595;52.542;11.974;2024-02-21T00:31:12;22.27;;;8.50;;
16957;SDS011;8595;52.542;11.974;2024-02-21T00:33:39;26.05;;;7.88;;
16957;SDS011;8595;52.542;11.974;2024-02-21T00:36:05;28.92;;;9.07;;
16957;SDS011;8595;52.542;11.974;2024-02-21T00:38:32;23.00;;;8.18;;
16957;SDS011;8595;52.542;11.974;2024-02-21T00:40:59;24.83;;;8.43;;
16957;SDS011;8595;52.542;11.974;2024-02-21T00:43:25;18.90;;;8.40;;
16957;SDS011;8595;52.542;11.974;2024-02-21T00:45:53;24.30;;;8.57;;
16957;SDS011;8595;52.542;11.974;2024-02-21T00:48:20;21.90;;;7.63;;
16957;SDS011;8595;52.542;11.974;2024-02-21T00:50:47;20.50;;;8.93;;
16957;SDS011;8595;52.542;11.974;2024-02-21T00:53:14;28.80;;;9.83;;
16957;SDS011;8595;52.542;11.974;2024-02-21T00:55:40;26.27;;;9.60;;
16957;SDS011;8595;52.542;11.974;2024-02-21T00:58:08;26.23;;;9.30;;
16957;SDS011;8595;52.542;11.974;2024-02-21T01:00:35;24.53;;;8.93;;
16957;SDS011;8595;52.542;11.974;2024-02-21T01:03:04;21.87;;;8.07;;
16957;SDS011;8595;52.542;11.974;2024-02-21T01:05:30;26.17;;;9.17;;
16957;SDS011;8595;52.542;11.974;2024-02-21T01:07:57;24.63;;;9.53;;
16957;SDS011;8595;52.542;11.974;2024-02-21T01:10:24;17.80;;;8.50;;
16957;SDS011;8595;52.542;11.974;2024-02-21T01:12:51;21.27;;;9.23;;
16957;SDS011;8595;52.542;11.974;2024-02-21T01:15:17;27.43;;;9.90;;
16957;SDS011;8595;52.542;11.974;2024-02-21T01:17:44;34.50;;;10.47;;
16957;SDS011;8595;52.542;11.974;2024-02-21T01:20:12;28.00;;;10.03;;
16957;SDS011;8595;52.542;11.974;2024-02-21T01:22:39;35.13;;;11.87;;
16957;SDS011;8595;52.542;11.974;2024-02-21T01:25:06;35.40;;;11.63;;
16957;SDS011;8595;52.542;11.974;2024-02-21T01:27:33;23.47;;;9.43;;
16957;SDS011;8595;52.542;11.974;2024-02-21T01:30:00;28.90;;;11.13;;
16957;SDS011;8595;52.542;11.974;2024-02-21T01:32:27;28.92;;;11.07;;
16957;SDS011;8595;52.542;11.974;2024-02-21T01:34:53;24.30;;;10.20;;
16957;SDS011;8595;52.542;11.974;2024-02-21T01:37:21;25.73;;;10.67;;
16957;SDS011;8595;52.542;11.974;2024-02-21T01:39:48;27.53;;;12.40;;
16957;SDS011;8595;52.542;11.974;2024-02-21T01:42:15;29.53;;;12.60;;
16957;SDS011;8595;52.542;11.974;2024-02-21T01:44:42;30.70;;;12.13;;
16957;SDS011;8595;52.542;11.974;2024-02-21T01:47:09;24.83;;;10.53;;
16957;SDS011;8595;52.542;11.974;2024-02-21T01:49:38;32.33;;;11.13;;
16957;SDS011;8595;52.542;11.974;2024-02-21T01:52:05;26.47;;;11.20;;
16957;SDS011;8595;52.542;11.974;2024-02-21T01:54:33;24.00;;;9.73;;
16957;SDS011;8595;52.542;11.974;2024-02-21T01:57:00;28.33;;;12.17;;
16957;SDS011;8595;52.542;11.974;2024-02-21T01:59:28;37.97;;;12.40;;
16957;SDS011;8595;52.542;11.974;2024-02-21T02:01:54;32.80;;;13.33;;
16957;SDS011;8595;52.542;11.974;2024-02-21T02:04:22;24.63;;;11.10;;
16957;SDS011;8595;52.542;11.974;2024-02-21T02:06:50;31.53;;;11.47;;
16957;SDS011;8595;52.542;11.974;2024-02-21T02:09:18;29.37;;;12.40;;
16957;SDS011;8595;52.542;11.974;2024-02-21T02:11:45;23.60;;;11.97;;
16957;SDS011;8595;52.542;11.974;2024-02-21T02:14:12;28.80;;;12.40;;
16957;SDS011;8595;52.542;11.974;2024-02-21T02:16:39;27.07;;;12.07;;
16957;SDS011;8595;52.542;11.974;2024-02-21T02:19:06;27.97;;;11.17;;
16957;SDS011;8595;52.542;11.974;2024-02-21T02:21:38;29.30;;;12.50;;
16957;SDS011;8595;52.542;11.974;2024-02-21T02:24:09;28.27;;;11.93;;
16957;SDS011;8595;52.542;11.974;2024-02-21T02:26:36;25.57;;;12.27;;
16957;SDS011;8595;52.542;11.974;2024-02-21T02:29:03;34.00;;;12.97;;
16957;SDS011;8595;52.542;11.974;2024-02-21T02:31:30;25.20;;;11.38;;
16957;SDS011;8595;52.542;11.974;2024-02-21T02:33:56;33.13;;;12.70;;
16957;SDS011;8595;52.542;11.974;2024-02-21T02:36:23;27.73;;;13.87;;
16957;SDS011;8595;52.542;11.974;2024-02-21T02:38:50;39.63;;;13.70;;
16957;SDS011;8595;52.542;11.974;2024-02-21T02:41:18;30.63;;;11.77;;
16957;SDS011;8595;52.542;11.974;2024-02-21T02:43:44;29.13;;;12.77;;
16957;SDS011;8595;52.542;11.974;2024-02-21T02:46:11;28.83;;;12.40;;
16957;SDS011;8595;52.542;11.974;2024-02-21T02:48:38;28.33;;;12.27;;
16957;SDS011;8595;52.542;11.974;2024-02-21T02:51:04;27.70;;;12.40;;
16957;SDS011;8595;52.542;11.974;2024-02-21T02:53:31;27.57;;;12.30;;
16957;SDS011;8595;52.542;11.974;2024-02-21T02:55:58;32.50;;;13.55;;
16957;SDS011;8595;52.542;11.974;2024-02-21T02:58:26;29.53;;;11.77;;
16957;SDS011;8595;52.542;11.974;2024-02-21T03:00:52;34.50;;;14.73;;
16957;SDS011;8595;52.542;11.974;2024-02-21T03:03:19;29.07;;;14.00;;
16957;SDS011;8595;52.542;11.974;2024-02-21T03:05:45;39.47;;;15.00;;
16957;SDS011;8595;52.542;11.974;2024-02-21T03:08:12;28.30;;;13.87;;
16957;SDS011;8595;52.542;11.974;2024-02-21T03:10:39;28.63;;;13.48;;
16957;SDS011;8595;52.542;11.974;2024-02-21T03:13:06;33.30;;;14.73;;
16957;SDS011;8595;52.542;11.974;2024-02-21T03:15:34;25.50;;;12.80;;
16957;SDS011;8595;52.542;11.974;2024-02-21T03:18:00;36.45;;;15.93;;
16957;SDS011;8595;52.542;11.974;2024-02-21T03:20:27;35.35;;;17.02;;
16957;SDS011;8595;52.542;11.974;2024-02-21T03:22:54;33.93;;;14.80;;
16957;SDS011;8595;52.542;11.974;2024-02-21T03:25:20;36.28;;;14.98;;
16957;SDS011;8595;52.542;11.974;2024-02-21T03:27:47;34.37;;;16.07;;
16957;SDS011;8595;52.542;11.974;2024-02-21T03:30:14;32.83;;;16.27;;
16957;SDS011;8595;52.542;11.974;2024-02-21T03:32:42;39.10;;;18.20;;
16957;SDS011;8595;52.542;11.974;2024-02-21T03:35:09;38.00;;;16.97;;
16957;SDS011;8595;52.542;11.974;2024-02-21T03:37:35;45.90;;;16.37;;
16957;SDS011;8595;52.542;11.974;2024-02-21T03:40:02;37.40;;;17.80;;
16957;SDS011;8595;52.542;11.974;2024-02-21T03:42:33;33.07;;;16.37;;
16957;SDS011;8595;52.542;11.974;2024-02-21T03:45:00;34.90;;;16.67;;
16957;SDS011;8595;52.542;11.974;2024-02-21T03:47:26;35.45;;;18.00;;
16957;SDS011;8595;52.542;11.974;2024-02-21T03:49:54;39.35;;;17.95;;
16957;SDS011;8595;52.542;11.974;2024-02-21T03:52:21;29.13;;;14.63;;
16957;SDS011;8595;52.542;11.974;2024-02-21T03:54:48;25.97;;;15.57;;
16957;SDS011;8595;52.542;11.974;2024-02-21T03:57:14;31.07;;;15.07;;
16957;SDS011;8595;52.542;11.974;2024-02-21T03:59:42;26.30;;;15.40;;
16957;SDS011;8595;52.542;11.974;2024-02-21T04:02:09;36.50;;;18.73;;
16957;SDS011;8595;52.542;11.974;2024-02-21T04:04:35;34.07;;;16.17;;
16957;SDS011;8595;52.542;11.974;2024-02-21T04:07:04;42.67;;;17.40;;
16957;SDS011;8595;52.542;11.974;2024-02-21T04:09:32;31.07;;;14.53;;
16957;SDS011;8595;52.542;11.974;2024-02-21T04:11:59;40.67;;;17.53;;
16957;SDS011;8595;52.542;11.974;2024-02-21T04:14:26;37.97;;;14.93;;
16957;SDS011;8595;52.542;11.974;2024-02-21T04:16:53;38.07;;;16.53;;
16957;SDS011;8595;52.542;11.974;2024-02-21T04:19:19;37.43;;;16.43;;
16957;SDS011;8595;52.542;11.974;2024-02-21T04:21:46;32.87;;;17.10;;
16957;SDS011;8595;52.542;11.974;2024-02-21T04:24:14;36.35;;;16.80;;
16957;SDS011;8595;52.542;11.974;2024-02-21T04:26:41;31.20;;;16.63;;
16957;SDS011;8595;52.542;11.974;2024-02-21T04:29:08;38.90;;;18.00;;
16957;SDS011;8595;52.542;11.974;2024-02-21T04:31:35;36.27;;;17.63;;
16957;SDS011;8595;52.542;11.974;2024-02-21T04:34:01;36.33;;;17.50;;
16957;SDS011;8595;52.542;11.974;2024-02-21T04:36:28;31.63;;;16.63;;
16957;SDS011;8595;52.542;11.974;2024-02-21T04:38:55;34.97;;;16.47;;
16957;SDS011;8595;52.542;11.974;2024-02-21T04:41:23;32.85;;;17.10;;
16957;SDS011;8595;52.542;11.974;2024-02-21T04:43:50;35.77;;;17.37;;
16957;SDS011;8595;52.542;11.974;2024-02-21T04:46:16;31.27;;;17.20;;
16957;SDS011;8595;52.542;11.974;2024-02-21T04:48:43;31.27;;;18.13;;
16957;SDS011;8595;52.542;11.974;2024-02-21T04:51:11;34.33;;;19.33;;
16957;SDS011;8595;52.542;11.974;2024-02-21T04:53:38;33.60;;;15.90;;
16957;SDS011;8595;52.542;11.974;2024-02-21T04:56:05;38.53;;;18.80;;
16957;SDS011;8595;52.542;11.974;2024-02-21T04:58:33;31.73;;;16.57;;
16957;SDS011;8595;52.542;11.974;2024-02-21T05:01:04;29.03;;;15.00;;
16957;SDS011;8595;52.542;11.974;2024-02-21T05:03:30;28.47;;;14.20;;
16957;SDS011;8595;52.542;11.974;2024-02-21T05:05:57;32.90;;;16.50;;
16957;SDS011;8595;52.542;11.974;2024-02-21T05:08:25;33.73;;;16.93;;
16957;SDS011;8595;52.542;11.974;2024-02-21T05:10:51;31.77;;;15.20;;
16957;SDS011;8595;52.542;11.974;2024-02-21T05:13:18;31.92;;;16.20;;
16957;SDS011;8595;52.542;11.974;2024-02-21T05:15:46;25.23;;;14.70;;
16957;SDS011;8595;52.542;11.974;2024-02-21T05:18:13;30.63;;;15.93;;
16957;SDS011;8595;52.542;11.974;2024-02-21T05:20:39;34.23;;;16.37;;
16957;SDS011;8595;52.542;11.974;2024-02-21T05:23:06;31.98;;;14.63;;
16957;SDS011;8595;52.542;11.974;2024-02-21T05:25:33;26.73;;;15.47;;
16957;SDS011;8595;52.542;11.974;2024-02-21T05:27:59;28.10;;;15.17;;
16957;SDS011;8595;52.542;11.974;2024-02-21T05:30:27;31.33;;;14.00;;
16957;SDS011;8595;52.542;11.974;2024-02-21T05:32:55;34.53;;;17.05;;
16957;SDS011;8595;52.542;11.974;2024-02-21T05:35:24;36.38;;;16.48;;
16957;SDS011;8595;52.542;11.974;2024-02-21T05:37:52;31.23;;;16.20;;
16957;SDS011;8595;52.542;11.974;2024-02-21T05:40:19;32.03;;;15.93;;
16957;SDS011;8595;52.542;11.974;2024-02-21T05:42:45;28.10;;;14.60;;
16957;SDS011;8595;52.542;11.974;2024-02-21T05:45:12;32.27;;;16.77;;
16957;SDS011;8595;52.542;11.974;2024-02-21T05:47:40;31.33;;;15.13;;
16957;SDS011;8595;52.542;11.974;2024-02-21T05:50:08;30.47;;;15.30;;
16957;SDS011;8595;52.542;11.974;2024-02-21T05:52:36;24.48;;;14.13;;
16957;SDS011;8595;52.542;11.974;2024-02-21T05:55:02;30.67;;;16.17;;
16957;SDS011;8595;52.542;11.974;2024-02-21T05:57:29;27.05;;;14.23;;
16957;SDS011;8595;52.542;11.974;2024-02-21T05:59:56;30.07;;;18.13;;
16957;SDS011;8595;52.542;11.974;2024-02-21T06:02:23;37.17;;;17.13;;
16957;SDS011;8595;52.542;11.974;2024-02-21T06:04:49;34.73;;;17.27;;
16957;SDS011;8595;52.542;11.974;2024-02-21T06:07:17;31.30;;;15.73;;
16957;SDS011;8595;52.542;11.974;2024-02-21T06:09:44;27.17;;;14.80;;
16957;SDS011;8595;52.542;11.974;2024-02-21T06:12:10;30.13;;;16.20;;
16957;SDS011;8595;52.542;11.974;2024-02-21T06:14:37;32.87;;;16.03;;
16957;SDS011;8595;52.542;11.974;2024-02-21T06:17:03;29.03;;;15.57;;
16957;SDS011;8595;52.542;11.974;2024-02-21T06:19:30;23.53;;;13.43;;
16957;SDS011;8595;52.542;11.974;2024-02-21T06:21:57;28.67;;;16.43;;
16957;SDS011;8595;52.542;11.974;2024-02-21T06:24:25;27.27;;;16.87;;
16957;SDS011;8595;52.542;11.974;2024-02-21T06:26:51;33.40;;;15.87;;
16957;SDS011;8595;52.542;11.974;2024-02-21T06:29:18;25.70;;;14.67;;
16957;SDS011;8595;52.542;11.974;2024-02-21T06:31:44;26.60;;;15.43;;
16957;SDS011;8595;52.542;11.974;2024-02-21T06:34:11;26.83;;;14.85;;
16957;SDS011;8595;52.542;11.974;2024-02-21T06:36:38;31.13;;;15.90;;
16957;SDS011;8595;52.542;11.974;2024-02-21T06:39:04;26.03;;;14.73;;
16957;SDS011;8595;52.542;11.974;2024-02-21T06:41:33;32.33;;;15.93;;
16957;SDS011;8595;52.542;11.974;2024-02-21T06:44:00;30.70;;;16.75;;
16957;SDS011;8595;52.542;11.974;2024-02-21T06:46:28;30.03;;;15.70;;
16957;SDS011;8595;52.542;11.974;2024-02-21T06:48:55;30.47;;;15.60;;
16957;SDS011;8595;52.542;11.974;2024-02-21T06:51:22;22.97;;;14.20;;
16957;SDS011;8595;52.542;11.974;2024-02-21T06:53:49;25.83;;;14.40;;
16957;SDS011;8595;52.542;11.974;2024-02-21T06:56:16;29.80;;;15.70;;
16957;SDS011;8595;52.542;11.974;2024-02-21T06:58:44;28.70;;;14.87;;
16957;SDS011;8595;52.542;11.974;2024-02-21T07:01:11;27.53;;;13.50;;
16957;SDS011;8595;52.542;11.974;2024-02-21T07:03:38;25.05;;;14.68;;
16957;SDS011;8595;52.542;11.974;2024-02-21T07:06:04;22.93;;;14.53;;
16957;SDS011;8595;52.542;11.974;2024-02-21T07:08:31;26.20;;;16.00;;
16957;SDS011;8595;52.542;11.974;2024-02-21T07:10:57;29.98;;;15.55;;
16957;SDS011;8595;52.542;11.974;2024-02-21T07:13:24;31.23;;;17.20;;
16957;SDS011;8595;52.542;11.974;2024-02-21T07:15:52;24.07;;;15.63;;
16957;SDS011;8595;52.542;11.974;2024-02-21T07:18:18;28.95;;;15.70;;
16957;SDS011;8595;52.542;11.974;2024-02-21T07:20:45;25.45;;;15.38;;
16957;SDS011;8595;52.542;11.974;2024-02-21T07:23:12;27.27;;;16.00;;
16957;SDS011;8595;52.542;11.974;2024-02-21T07:25:38;29.23;;;15.07;;
16957;SDS011;8595;52.542;11.974;2024-02-21T07:28:05;31.88;;;17.67;;
16957;SDS011;8595;52.542;11.974;2024-02-21T07:30:33;26.70;;;14.40;;
16957;SDS011;8595;52.542;11.974;2024-02-21T07:33:01;26.52;;;14.68;;
16957;SDS011;8595;52.542;11.974;2024-02-21T07:35:28;32.72;;;16.42;;
16957;SDS011;8595;52.542;11.974;2024-02-21T07:37:54;30.77;;;16.40;;
16957;SDS011;8595;52.542;11.974;2024-02-21T07:40:21;31.00;;;17.83;;
16957;SDS011;8595;52.542;11.974;2024-02-21T07:42:47;26.58;;;16.00;;
16957;SDS011;8595;52.542;11.974;2024-02-21T07:45:14;30.73;;;15.70;;
16957;SDS011;8595;52.542;11.974;2024-02-21T07:47:41;27.52;;;15.15;;
16957;SDS011;8595;52.542;11.974;2024-02-21T07:50:09;41.08;;;21.50;;
16957;SDS011;8595;52.542;11.974;2024-02-21T07:52:36;34.53;;;18.52;;
16957;SDS011;8595;52.542;11.974;2024-02-21T07:55:03;27.20;;;17.67;;
16957;SDS011;8595;52.542;11.974;2024-02-21T07:57:30;29.30;;;17.90;;
16957;SDS011;8595;52.542;11.974;2024-02-21T07:59:56;30.25;;;18.83;;
16957;SDS011;8595;52.542;11.974;2024-02-21T08:02:23;30.15;;;18.38;;
16957;SDS011;8595;52.542;11.974;2024-02-21T08:04:49;32.05;;;17.98;;
16957;SDS011;8595;52.542;11.974;2024-02-21T08:07:17;29.30;;;17.37;;
16957;SDS011;8595;52.542;11.974;2024-02-21T08:09:44;28.00;;;16.13;;
16957;SDS011;8595;52.542;11.974;2024-02-21T08:12:10;26.80;;;16.48;;
16957;SDS011;8595;52.542;11.974;2024-02-21T08:14:37;29.77;;;17.02;;
16957;SDS011;8595;52.542;11.974;2024-02-21T08:17:04;28.48;;;16.25;;
16957;SDS011;8595;52.542;11.974;2024-02-21T08:19:30;28.17;;;17.52;;
16957;SDS011;8595;52.542;11.974;2024-02-21T08:21:57;31.55;;;17.27;;
16957;SDS011;8595;52.542;11.974;2024-02-21T08:24:25;23.92;;;15.60;;
16957;SDS011;8595;52.542;11.974;2024-02-21T08:26:52;26.38;;;17.27;;
16957;SDS011;8595;52.542;11.974;2024-02-21T08:29:18;31.33;;;16.17;;
16957;SDS011;8595;52.542;11.974;2024-02-21T08:31:45;24.60;;;15.80;;
16957;SDS011;8595;52.542;11.974;2024-02-21T08:34:11;28.42;;;16.73;;
16957;SDS011;8595;52.542;11.974;2024-02-21T08:36:38;25.38;;;16.13;;
16957;SDS011;8595;52.542;11.974;2024-02-21T08:39:05;28.05;;;16.48;;
16957;SDS011;8595;52.542;11.974;2024-02-21T08:41:33;30.55;;;17.48;;
16957;SDS011;8595;52.542;11.974;2024-02-21T08:44:00;27.63;;;15.68;;
16957;SDS011;8595;52.542;11.974;2024-02-21T08:46:31;29.08;;;17.05;;
16957;SDS011;8595;52.542;11.974;2024-02-21T08:48:58;27.67;;;16.07;;
16957;SDS011;8595;52.542;11.974;2024-02-21T08:51:24;31.42;;;18.10;;
16957;SDS011;8595;52.542;11.974;2024-02-21T08:53:51;28.23;;;20.00;;
16957;SDS011;8595;52.542;11.974;2024-02-21T08:56:18;35.72;;;20.83;;
16957;SDS011;8595;52.542;11.974;2024-02-21T08:58:46;33.40;;;19.05;;
16957;SDS011;8595;52.542;11.974;2024-02-21T09:01:13;34.00;;;19.33;;
16957;SDS011;8595;52.542;11.974;2024-02-21T09:03:40;31.90;;;19.25;;
16957;SDS011;8595;52.542;11.974;2024-02-21T09:06:06;28.95;;;17.80;;
16957;SDS011;8595;52.542;11.974;2024-02-21T09:08:34;51.08;;;24.27;;
16957;SDS011;8595;52.542;11.974;2024-02-21T09:11:00;38.45;;;21.50;;
16957;SDS011;8595;52.542;11.974;2024-02-21T09:13:27;36.27;;;19.73;;
16957;SDS011;8595;52.542;11.974;2024-02-21T09:15:56;34.83;;;18.47;;
16957;SDS011;8595;52.542;11.974;2024-02-21T09:18:23;32.10;;;17.15;;
16957;SDS011;8595;52.542;11.974;2024-02-21T09:20:49;28.70;;;16.42;;
16957;SDS011;8595;52.542;11.974;2024-02-21T09:23:16;27.35;;;17.92;;
16957;SDS011;8595;52.542;11.974;2024-02-21T09:25:44;33.78;;;18.52;;
16957;SDS011;8595;52.542;11.974;2024-02-21T09:28:11;36.85;;;19.77;;
16957;SDS011;8595;52.542;11.974;2024-02-21T09:30:39;27.17;;;18.45;;
16957;SDS011;8595;52.542;11.974;2024-02-21T09:33:07;28.98;;;17.27;;
16957;SDS011;8595;52.542;11.974;2024-02-21T09:35:33;33.65;;;18.00;;
16957;SDS011;8595;52.542;11.974;2024-02-21T09:38:01;24.67;;;15.70;;
16957;SDS011;8595;52.542;11.974;2024-02-21T09:40:28;30.92;;;16.85;;
16957;SDS011;8595;52.542;11.974;2024-02-21T09:42:58;23.98;;;15.90;;
16957;SDS011;8595;52.542;11.974;2024-02-21T09:45:29;29.20;;;16.97;;
16957;SDS011;8595;52.542;11.974;2024-02-21T09:48:11;27.40;;;15.82;;
16957;SDS011;8595;52.542;11.974;2024-02-21T09:50:51;24.30;;;15.25;;
16957;SDS011;8595;52.542;11.974;2024-02-21T09:53:20;25.23;;;18.77;;
16957;SDS011;8595;52.542;11.974;2024-02-21T09:55:50;30.33;;;17.15;;
16957;SDS011;8595;52.542;11.974;2024-02-21T09:58:17;32.90;;;15.73;;
16957;SDS011;8595;52.542;11.974;2024-02-21T10:00:44;28.33;;;16.95;;
16957;SDS011;8595;52.542;11.974;2024-02-21T10:03:12;22.75;;;14.48;;
16957;SDS011;8595;52.542;11.974;2024-02-21T10:05:45;24.05;;;15.23;;
16957;SDS011;8595;52.542;11.974;2024-02-21T10:08:14;23.00;;;15.18;;
16957;SDS011;8595;52.542;11.974;2024-02-21T10:10:41;31.08;;;15.60;;
16957;SDS011;8595;52.542;11.974;2024-02-21T10:13:09;23.23;;;15.38;;
16957;SDS011;8595;52.542;11.974;2024-02-21T10:15:37;24.75;;;15.60;;
16957;SDS011;8595;52.542;11.974;2024-02-21T10:18:04;26.40;;;15.23;;
16957;SDS011;8595;52.542;11.974;2024-02-21T10:20:33;23.75;;;16.27;;
16957;SDS011;8595;52.542;11.974;2024-02-21T10:23:00;24.70;;;16.25;;
16957;SDS011;8595;52.542;11.974;2024-02-21T10:25:28;22.90;;;13.88;;
16957;SDS011;8595;52.542;11.974;2024-02-21T10:27:55;28.23;;;16.77;;
16957;SDS011;8595;52.542;11.974;2024-02-21T10:30:22;28.20;;;14.63;;
16957;SDS011;8595;52.542;11.974;2024-02-21T10:32:49;25.27;;;15.07;;
16957;SDS011;8595;52.542;11.974;2024-02-21T10:35:43;27.88;;;16.20;;
16957;SDS011;8595;52.542;11.974;2024-02-21T10:38:10;28.67;;;15.32;;
16957;SDS011;8595;52.542;11.974;2024-02-21T10:40:37;20.02;;;13.70;;
16957;SDS011;8595;52.542;11.974;2024-02-21T10:43:03;24.10;;;14.00;;
16957;SDS011;8595;52.542;11.974;2024-02-21T10:45:36;20.02;;;12.68;;
16957;SDS011;8595;52.542;11.974;2024-02-21T10:48:06;20.58;;;12.07;;
16957;SDS011;8595;52.542;11.974;2024-02-21T10:50:40;21.67;;;11.82;;
16957;SDS011;8595;52.542;11.974;2024-02-21T10:53:20;23.52;;;12.98;;
16957;SDS011;8595;52.542;11.974;2024-02-21T10:55:56;20.58;;;11.52;;
16957;SDS011;8595;52.542;11.974;2024-02-21T10:58:28;22.98;;;12.55;;
16957;SDS011;8595;52.542;11.974;2024-02-21T11:00:56;16.20;;;11.35;;
16957;SDS011;8595;52.542;11.974;2024-02-21T11:03:23;18.10;;;10.77;;
16957;SDS011;8595;52.542;11.974;2024-02-21T11:05:51;20.73;;;12.15;;
16957;SDS011;8595;52.542;11.974;2024-02-21T11:08:19;16.75;;;10.88;;
16957;SDS011;8595;52.542;11.974;2024-02-21T11:10:46;17.95;;;11.27;;
16957;SDS011;8595;52.542;11.974;2024-02-21T11:13:13;19.65;;;11.57;;
16957;SDS011;8595;52.542;11.974;2024-02-21T11:15:39;13.75;;;9.20;;
16957;SDS011;8595;52.542;11.974;2024-02-21T11:18:06;19.63;;;10.73;;
16957;SDS011;8595;52.542;11.974;2024-02-21T11:20:33;18.10;;;11.77;;
16957;SDS011;8595;52.542;11.974;2024-02-21T11:23:01;20.48;;;10.85;;
16957;SDS011;8595;52.542;11.974;2024-02-21T11:25:28;17.83;;;10.57;;
16957;SDS011;8595;52.542;11.974;2024-02-21T11:27:59;18.98;;;10.23;;
16957;SDS011;8595;52.542;11.974;2024-02-21T11:30:27;15.48;;;9.88;;
16957;SDS011;8595;52.542;11.974;2024-02-21T11:32:58;20.92;;;12.10;;
16957;SDS011;8595;52.542;11.974;2024-02-21T11:35:26;24.73;;;11.20;;
16957;SDS011;8595;52.542;11.974;2024-02-21T11:38:08;17.90;;;9.77;;
16957;SDS011;8595;52.542;11.974;2024-02-21T11:40:38;15.68;;;9.00;;
16957;SDS011;8595;52.542;11.974;2024-02-21T11:43:06;18.92;;;9.98;;
16957;SDS011;8595;52.542;11.974;2024-02-21T11:45:33;17.52;;;10.30;;
16957;SDS011;8595;52.542;11.974;2024-02-21T11:48:00;17.48;;;9.35;;
16957;SDS011;8595;52.542;11.974;2024-02-21T11:50:28;12.32;;;8.38;;
16957;SDS011;8595;52.542;11.974;2024-02-21T11:52:55;15.55;;;7.85;;
16957;SDS011;8595;52.542;11.974;2024-02-21T11:55:23;14.48;;;8.60;;
16957;SDS011;8595;52.542;11.974;2024-02-21T11:57:50;14.73;;;9.20;;
16957;SDS011;8595;52.542;11.974;2024-02-21T12:00:17;13.93;;;7.75;;
16957;SDS011;8595;52.542;11.974;2024-02-21T12:02:46;14.55;;;8.80;;
16957;SDS011;8595;52.542;11.974;2024-02-21T12:05:13;12.43;;;8.48;;
16957;SDS011;8595;52.542;11.974;2024-02-21T12:07:40;14.88;;;7.40;;
16957;SDS011;8595;52.542;11.974;2024-02-21T12:10:08;13.32;;;8.20;;
16957;SDS011;8595;52.542;11.974;2024-02-21T12:12:37;12.95;;;7.78;;
16957;SDS011;8595;52.542;11.974;2024-02-21T12:15:04;13.77;;;8.35;;
16957;SDS011;8595;52.542;11.974;2024-02-21T12:17:32;13.18;;;6.93;;
16957;SDS011;8595;52.542;11.974;2024-02-21T12:19:59;10.27;;;6.93;;
16957;SDS011;8595;52.542;11.974;2024-02-21T12:22:28;12.95;;;7.43;;
16957;SDS011;8595;52.542;11.974;2024-02-21T12:24:58;14.93;;;6.22;;
16957;SDS011;8595;52.542;11.974;2024-02-21T12:27:25;13.27;;;6.25;;
16957;SDS011;8595;52.542;11.974;2024-02-21T12:29:53;14.50;;;6.20;;
16957;SDS011;8595;52.542;11.974;2024-02-21T12:32:21;11.95;;;6.85;;
16957;SDS011;8595;52.542;11.974;2024-02-21T12:34:47;16.38;;;6.93;;
16957;SDS011;8595;52.542;11.974;2024-02-21T12:37:14;11.32;;;5.85;;
16957;SDS011;8595;52.542;11.974;2024-02-21T12:39:41;12.77;;;6.32;;
16957;SDS011;8595;52.542;11.974;2024-02-21T12:42:09;12.63;;;6.32;;
16957;SDS011;8595;52.542;11.974;2024-02-21T12:44:37;11.45;;;5.32;;
16957;SDS011;8595;52.542;11.974;2024-02-21T12:47:05;10.57;;;6.07;;
16957;SDS011;8595;52.542;11.974;2024-02-21T12:49:33;10.60;;;5.63;;
16957;SDS011;8595;52.542;11.974;2024-02-21T12:51:59;15.60;;;5.72;;
16957;SDS011;8595;52.542;11.974;2024-02-21T12:54:26;11.57;;;7.13;;
16957;SDS011;8595;52.542;11.974;2024-02-21T12:56:55;9.63;;;6.90;;
16957;SDS011;8595;52.542;11.974;2024-02-21T12:59:23;10.77;;;5.82;;
16957;SDS011;8595;52.542;11.974;2024-02-21T13:01:51;8.65;;;5.40;;
16957;SDS011;8595;52.542;11.974;2024-02-21T13:04:19;12.70;;;5.85;;
16957;SDS011;8595;52.542;11.974;2024-02-21T13:06:46;10.00;;;6.15;;
16957;SDS011;8595;52.542;11.974;2024-02-21T13:09:13;10.82;;;5.97;;
16957;SDS011;8595;52.542;11.974;2024-02-21T13:11:40;9.73;;;5.88;;
16957;SDS011;8595;52.542;11.974;2024-02-21T13:14:07;11.00;;;6.03;;
16957;SDS011;8595;52.542;11.974;2024-02-21T13:16:33;11.43;;;5.55;;
16957;SDS011;8595;52.542;11.974;2024-02-21T13:19:04;8.32;;;5.32;;
16957;SDS011;8595;52.542;11.974;2024-02-21T13:21:32;8.15;;;4.82;;
16957;SDS011;8595;52.542;11.974;2024-02-21T13:23:58;9.00;;;5.18;;
16957;SDS011;8595;52.542;11.974;2024-02-21T13:26:25;7.05;;;4.72;;
16957;SDS011;8595;52.542;11.974;2024-02-21T13:28:52;10.20;;;4.93;;
16957;SDS011;8595;52.542;11.974;2024-02-21T13:31:18;9.75;;;6.07;;
16957;SDS011;8595;52.542;11.974;2024-02-21T13:33:45;12.45;;;5.30;;
16957;SDS011;8595;52.542;11.974;2024-02-21T13:36:12;7.03;;;4.53;;
16957;SDS011;8595;52.542;11.974;2024-02-21T13:38:40;10.18;;;5.22;;
16957;SDS011;8595;52.542;11.974;2024-02-21T13:41:07;12.45;;;5.40;;
16957;SDS011;8595;52.542;11.974;2024-02-21T13:43:33;10.10;;;5.65;;
16957;SDS011;8595;52.542;11.974;2024-02-21T13:46:01;12.10;;;5.55;;
16957;SDS011;8595;52.542;11.974;2024-02-21T13:48:30;7.53;;;4.72;;
16957;SDS011;8595;52.542;11.974;2024-02-21T13:50:58;12.38;;;4.97;;
16957;SDS011;8595;52.542;11.974;2024-02-21T13:53:27;10.18;;;5.57;;
16957;SDS011;8595;52.542;11.974;2024-02-21T13:55:55;9.52;;;4.88;;
16957;SDS011;8595;52.542;11.974;2024-02-21T13:58:21;8.23;;;5.03;;
16957;SDS011;8595;52.542;11.974;2024-02-21T14:00:49;8.70;;;5.80;;
16957;SDS011;8595;52.542;11.974;2024-02-21T14:03:16;10.88;;;5.65;;
16957;SDS011;8595;52.542;11.974;2024-02-21T14:05:43;9.63;;;5.57;;
16957;SDS011;8595;52.542;11.974;2024-02-21T14:08:10;10.52;;;5.72;;
16957;SDS011;8595;52.542;11.974;2024-02-21T14:10:37;10.77;;;6.20;;
16957;SDS011;8595;52.542;11.974;2024-02-21T14:13:05;10.40;;;5.55;;
16957;SDS011;8595;52.542;11.974;2024-02-21T14:15:32;10.15;;;5.85;;
16957;SDS011;8595;52.542;11.974;2024-02-21T14:17:59;17.73;;;6.63;;
16957;SDS011;8595;52.542;11.974;2024-02-21T14:20:25;11.23;;;6.35;;
16957;SDS011;8595;52.542;11.974;2024-02-21T14:22:52;11.18;;;6.05;;
16957;SDS011;8595;52.542;11.974;2024-02-21T14:25:19;10.30;;;5.88;;
16957;SDS011;8595;52.542;11.974;2024-02-21T14:27:46;12.52;;;6.32;;